KHKS/HKS METAR and TAF weather

Enter ICAO airport designator
Station Type Date Time Source
KHKS METAR 2019/12/12 16:53 UTC NOAA

KHKS 121653Z 11007KT 10SM CLR 11/02 A3034 RMK AO2 SLP270 T01060022


Station Type Date Time Source
KHKS Decoded METAR 2019/12/12 16:53 UTC NOAA

HAWKINS FIELD, MS, United States (KHKS) 32-20N 090-13W 108M
Dec 12, 2019 - 11:53 AM EST / 2019.12.12 1653 UTC
Wind: from the ESE (110 degrees) at 8 MPH (7 KT):0
Visibility: 10 mile(s):0
Sky conditions: clear
Temperature: 51.1 F (10.6 C)
Dew Point: 36.0 F (2.2 C)
Relative Humidity: 56%
Pressure (altimeter): 30.34 in. Hg (1027 hPa)
ob: KHKS 121653Z 11007KT 10SM CLR 11/02 A3034 RMK AO2 SLP270 T01060022
cycle: 17

Station Type Date Time Source
KHKS TAF 2019/12/12 12:48 UTC NOAA

TAF KHKS 121146Z 1212/1312 10008KT P6SM SKC
FM121900 13008KT P6SM SCT025 BKN050
FM130300 13005KT P6SM SCT015 OVC025
FM131000 14003KT P6SM OVC008

Example: see airport list